Terminal Aerodrome Forecast
Issued by NWS

Home | Current Version | Previous Version | Text Only | Print | Product List | Glossary Off
Versions: 1 2 3 4 5 6 7 8 9 10 11 12 13 14 15 16 17 18 19 20 21 22 23 24 25 26 27 28 29 30 31 32 33 34 35 36 37 38 39 40 41 42 43 44 45 46 47 48

098
FTUS43 KGRB 202233 AAC
TAFATW
TAF AMD
KATW 202233Z 2023/2118 08009G15KT 5SM -RA BR OVC010
      TEMPO 2023/2102 2SM -RA BR SCT006
     FM210200 09009G15KT 4SM -RA BR OVC006
     FM210600 12006KT 4SM -DZ BR OVC004
     FM211100 20007KT P6SM -SHRA BKN007
     FM211500 22010G18KT P6SM BKN017=

USA.gov is the U.S. government's official web portal to all federal, state and local government web resources and services.